createdAt,value
2022-10-25T00:04:40.087Z,98902.04
2022-10-25T00:09:43.172Z,98902.69
2022-10-25T00:14:46.310Z,98910.11
2022-10-25T00:19:49.292Z,98908.02
2022-10-25T00:24:52.894Z,98901.89
2022-10-25T00:29:55.754Z,98910.64
2022-10-25T00:34:58.607Z,98903.19
2022-10-25T00:40:01.791Z,98894.38
2022-10-25T00:45:28.629Z,98890.77
2022-10-25T00:50:40.080Z,98887.98
2022-10-25T00:55:47.051Z,98903.31
2022-10-25T01:00:50.605Z,98909.55
2022-10-25T01:05:54.118Z,98907.77
2022-10-25T01:10:57.118Z,98912.80
2022-10-25T01:16:12.562Z,98907.40
2022-10-25T01:21:18.410Z,98905.21
2022-10-25T01:26:40.129Z,98900.16
2022-10-25T01:31:50.687Z,98895.59
2022-10-25T01:37:08.086Z,98897.81
2022-10-25T01:42:38.905Z,98905.41
2022-10-25T01:47:50.270Z,98907.38
2022-10-25T01:58:03.310Z,98905.13
2022-10-25T02:03:38.006Z,98907.14
2022-10-25T02:08:52.063Z,98903.71
2022-10-25T02:14:13.564Z,98899.58
2022-10-25T02:19:22.691Z,98909.55
2022-10-25T02:24:28.734Z,98916.71
2022-10-25T02:29:34.315Z,98916.66
2022-10-25T02:34:37.267Z,98917.59
2022-10-25T02:39:40.424Z,98916.17
2022-10-25T02:44:43.331Z,98926.01
2022-10-25T02:49:46.278Z,98918.60
2022-10-25T02:54:49.182Z,98916.83
2022-10-25T02:59:52.098Z,98911.94
2022-10-25T03:04:55.132Z,98914.63
2022-10-25T03:09:58.014Z,98918.74
2022-10-25T03:15:00.924Z,98907.93
2022-10-25T03:20:04.493Z,98904.48
2022-10-25T03:30:13.805Z,98910.39
2022-10-25T03:35:16.732Z,98919.48
2022-10-25T03:40:20.610Z,98923.40
2022-10-25T03:45:23.850Z,98923.27
2022-10-25T03:50:26.936Z,98923.08
2022-10-25T03:55:29.785Z,98930.28
2022-10-25T04:00:32.795Z,98936.70
2022-10-25T04:05:36.098Z,98938.45
2022-10-25T04:10:39.061Z,98940.31
2022-10-25T04:15:42.082Z,98940.35
2022-10-25T04:20:45.094Z,98937.63
2022-10-25T04:25:48.227Z,98935.62
2022-10-25T04:30:51.197Z,98941.04
2022-10-25T04:35:57.730Z,98942.67
2022-10-25T04:41:01.263Z,98947.23
2022-10-25T04:46:04.498Z,98942.05
2022-10-25T04:51:08.769Z,98940.20
2022-10-25T04:56:14.522Z,98944.27
2022-10-25T05:01:18.798Z,98947.82
2022-10-25T05:06:25.540Z,98951.25
2022-10-25T05:11:28.488Z,98953.73
2022-10-25T05:16:34.709Z,98949.38
2022-10-25T05:21:38.210Z,98949.77
2022-10-25T05:26:41.163Z,98947.41
2022-10-25T05:31:44.133Z,98947.68
2022-10-25T05:36:47.024Z,98948.25
2022-10-25T05:41:50.186Z,98949.63
2022-10-25T05:46:53.413Z,98952.40
2022-10-25T05:51:56.306Z,98950.70
2022-10-25T05:56:59.187Z,98947.11
2022-10-25T06:02:02.523Z,98955.30
2022-10-25T06:07:07.518Z,98969.02
2022-10-25T06:12:10.474Z,98979.84
2022-10-25T06:17:14.007Z,98985.79
2022-10-25T06:22:17.017Z,98989.61
2022-10-25T06:27:19.827Z,98996.58
2022-10-25T06:32:22.724Z,99004.98
2022-10-25T06:37:25.660Z,99005.14
2022-10-25T06:42:28.710Z,99011.16
2022-10-25T06:47:31.799Z,99008.31
2022-10-25T06:52:34.717Z,99020.10
2022-10-25T06:57:37.629Z,99027.73
2022-10-25T07:02:40.516Z,99035.85
2022-10-25T07:07:43.578Z,99040.17
2022-10-25T07:12:46.608Z,99038.24
2022-10-25T07:17:49.824Z,99043.64
2022-10-25T07:22:56.551Z,99054.38
2022-10-25T07:28:02.365Z,99066.13
2022-10-25T07:33:05.244Z,99068.05
2022-10-25T07:38:08.116Z,99074.16
2022-10-25T07:43:11.182Z,99074.41
2022-10-25T07:48:14.065Z,99059.68
2022-10-25T07:53:17.148Z,99042.59
2022-10-25T07:58:20.591Z,99027.48
2022-10-25T08:03:23.482Z,99013.71
2022-10-25T08:08:27.452Z,99006.66
2022-10-25T08:13:30.355Z,99005.15
2022-10-25T08:18:34.244Z,98997.64
2022-10-25T08:23:38.165Z,98997.98
2022-10-25T08:28:41.233Z,98998.05
2022-10-25T08:33:44.101Z,98998.61
2022-10-25T08:38:47.400Z,99006.17
2022-10-25T08:44:11.464Z,99001.73
2022-10-25T08:49:58.971Z,98999.40
2022-10-25T08:55:06.035Z,99012.56
2022-10-25T09:00:17.550Z,99023.59
2022-10-25T09:05:43.232Z,99030.80
2022-10-25T09:10:55.698Z,99036.59
2022-10-25T09:16:19.708Z,99043.14
2022-10-25T09:21:23.110Z,99043.16
2022-10-25T09:26:39.069Z,99045.29
2022-10-25T09:31:48.652Z,99050.29
2022-10-25T09:36:59.233Z,99057.08
2022-10-25T09:42:03.466Z,99063.09
2022-10-25T09:47:17.597Z,99063.63
2022-10-25T09:52:44.698Z,99063.34
2022-10-25T09:57:47.836Z,99064.25
2022-10-25T10:02:51.052Z,99069.77
2022-10-25T10:07:54.863Z,99068.16
2022-10-25T10:13:12.952Z,99066.15
2022-10-25T10:18:23.162Z,99065.08
2022-10-25T10:23:32.755Z,99068.42
2022-10-25T10:28:36.305Z,99072.46
2022-10-25T10:33:39.613Z,99070.94
2022-10-25T10:38:42.487Z,99068.92
2022-10-25T10:43:45.423Z,99064.89
2022-10-25T10:48:55.080Z,99059.55
2022-10-25T10:53:58.601Z,99061.33
2022-10-25T10:59:01.579Z,99060.03
2022-10-25T11:04:04.691Z,99060.13
2022-10-25T11:09:12.908Z,99061.03
2022-10-25T11:14:17.961Z,99063.75
2022-10-25T11:19:20.839Z,99060.52
2022-10-25T11:25:00.893Z,99062.15
2022-10-25T11:30:16.152Z,99068.52
2022-10-25T11:35:38.191Z,99075.54
2022-10-25T11:40:46.639Z,99072.92
2022-10-25T11:45:58.671Z,99080.10
2022-10-25T11:51:41.312Z,99074.80
2022-10-25T11:57:14.963Z,99070.81
2022-10-25T12:02:45.687Z,99068.08
2022-10-25T12:07:54.766Z,99061.69
2022-10-25T12:13:16.771Z,99056.03
2022-10-25T12:18:26.182Z,99058.52
2022-10-25T12:23:36.914Z,99052.27
2022-10-25T12:28:49.871Z,99046.55
2022-10-25T12:34:02.414Z,99044.40
2022-10-25T12:39:18.348Z,99040.44
2022-10-25T12:44:58.918Z,99041.80
2022-10-25T12:50:30.031Z,99046.38
2022-10-25T12:56:06.722Z,99048.79
2022-10-25T13:01:38.262Z,99050.58
2022-10-25T13:06:47.124Z,99053.56
2022-10-25T13:11:59.612Z,99056.14
2022-10-25T13:17:18.330Z,99056.13
2022-10-25T13:22:46.790Z,99052.44
2022-10-25T13:28:11.209Z,99051.83
2022-10-25T13:33:22.685Z,99042.25
2022-10-25T13:38:34.191Z,99045.95
2022-10-25T13:43:56.868Z,99055.27
2022-10-25T13:49:01.558Z,99058.76
2022-10-25T13:54:08.426Z,99054.81
2022-10-25T13:59:58.972Z,99053.64
2022-10-25T14:05:02.155Z,99056.84
2022-10-25T14:10:13.692Z,99065.29
2022-10-25T14:15:39.804Z,99074.55
2022-10-25T14:20:47.183Z,99083.19
2022-10-25T14:26:01.347Z,99082.36
2022-10-25T14:31:11.985Z,99082.61
2022-10-25T14:36:29.883Z,99085.62
2022-10-25T14:41:35.498Z,99082.87
2022-10-25T14:46:44.782Z,99078.37
2022-10-25T14:51:50.281Z,99079.00
2022-10-25T14:57:02.824Z,99081.27
2022-10-25T15:02:28.617Z,99083.21
2022-10-25T15:07:31.393Z,99086.29
2022-10-25T15:12:35.084Z,99095.73
2022-10-25T15:17:38.295Z,99108.23
2022-10-25T15:22:44.219Z,99110.21
2022-10-25T15:27:48.039Z,99113.70
2022-10-25T15:32:51.102Z,99126.40
2022-10-25T15:37:55.895Z,99129.11
2022-10-25T15:42:59.088Z,99134.51
2022-10-25T15:48:14.598Z,99134.12
2022-10-25T15:53:17.747Z,99133.60
2022-10-25T15:58:20.704Z,99138.20
2022-10-25T16:03:25.058Z,99135.00
2022-10-25T16:08:28.184Z,99135.65
2022-10-25T16:13:38.049Z,99136.64
2022-10-25T16:18:41.005Z,99141.29
2022-10-25T16:23:43.931Z,99139.15
2022-10-25T16:28:46.898Z,99143.33
2022-10-25T16:33:50.129Z,99150.77
2022-10-25T16:38:53.111Z,99154.30
2022-10-25T16:43:58.258Z,99157.75
2022-10-25T16:49:02.239Z,99166.39
2022-10-25T16:54:06.614Z,99168.17
2022-10-25T16:59:09.557Z,99165.94
2022-10-25T17:04:14.706Z,99173.16
2022-10-25T17:09:18.313Z,99174.88
2022-10-25T17:14:21.293Z,99171.97
2022-10-25T17:19:25.981Z,99179.05
2022-10-25T17:24:33.099Z,99179.07
2022-10-25T17:29:36.098Z,99179.63
2022-10-25T17:34:41.107Z,99185.15
2022-10-25T17:39:44.553Z,99190.27
2022-10-25T17:44:47.920Z,99194.11
2022-10-25T17:49:51.163Z,99192.52
2022-10-25T17:54:54.171Z,99197.18
2022-10-25T17:59:58.193Z,99203.52
2022-10-25T18:05:21.914Z,99216.30
2022-10-25T18:10:25.316Z,99217.70
2022-10-25T18:15:29.360Z,99219.58
2022-10-25T18:20:32.464Z,99225.84
2022-10-25T18:25:36.268Z,99227.32
2022-10-25T18:30:39.216Z,99227.30
2022-10-25T18:35:42.366Z,99225.27
2022-10-25T18:40:45.461Z,99227.92
2022-10-25T18:45:48.415Z,99230.56
2022-10-25T18:50:51.379Z,99229.70
2022-10-25T18:55:54.671Z,99230.63
2022-10-25T19:00:58.382Z,99236.23
2022-10-25T19:06:01.969Z,99237.75
2022-10-25T19:11:07.375Z,99243.76
2022-10-25T19:16:10.403Z,99251.48
2022-10-25T19:21:17.138Z,99258.30
2022-10-25T19:26:21.149Z,99261.83
2022-10-25T19:31:24.385Z,99265.95
2022-10-25T19:36:27.787Z,99270.52
2022-10-25T19:41:30.769Z,99274.95
2022-10-25T19:46:34.081Z,99273.16
2022-10-25T19:51:37.064Z,99273.46
2022-10-25T19:56:40.165Z,99271.92
2022-10-25T20:01:46.103Z,99275.16
2022-10-25T20:06:49.317Z,99276.52
2022-10-25T20:11:52.441Z,99278.89
2022-10-25T20:16:55.341Z,99277.54
2022-10-25T20:21:58.353Z,99276.48
2022-10-25T20:27:02.202Z,99275.50
2022-10-25T20:32:05.404Z,99277.83
2022-10-25T20:37:10.234Z,99280.73
2022-10-25T20:42:13.076Z,99286.73
2022-10-25T20:47:16.568Z,99286.77
2022-10-25T20:52:19.498Z,99288.34
2022-10-25T20:57:22.459Z,99288.39
2022-10-25T21:02:25.837Z,99284.89
2022-10-25T21:07:32.222Z,99287.36
2022-10-25T21:12:35.422Z,99291.55
2022-10-25T21:17:38.433Z,99293.08
2022-10-25T21:22:42.588Z,99293.86
2022-10-25T21:27:45.852Z,99295.59
2022-10-25T21:32:49.387Z,99292.66
2022-10-25T21:37:52.461Z,99291.41
2022-10-25T21:42:57.952Z,99294.71
2022-10-25T21:48:00.846Z,99291.71
2022-10-25T21:53:03.796Z,99291.36
2022-10-25T21:58:06.700Z,99293.61
2022-10-25T22:03:09.782Z,99297.13
2022-10-25T22:08:13.216Z,99301.86
2022-10-25T22:13:16.089Z,99297.65
2022-10-25T22:18:19.043Z,99296.69
2022-10-25T22:23:22.694Z,99295.66
2022-10-25T22:28:25.680Z,99295.14
2022-10-25T22:33:29.962Z,99296.29
2022-10-25T22:38:33.447Z,99306.55
2022-10-25T22:43:37.151Z,99306.55
2022-10-25T22:48:41.622Z,99309.91
2022-10-25T22:53:44.734Z,99309.25
2022-10-25T22:58:50.579Z,99310.70
2022-10-25T23:03:56.163Z,99308.55
2022-10-25T23:09:00.134Z,99308.61
2022-10-25T23:14:05.290Z,99310.32
2022-10-25T23:19:08.294Z,99314.99
2022-10-25T23:24:11.391Z,99322.70
2022-10-25T23:29:14.249Z,99323.30
2022-10-25T23:34:17.181Z,99322.45
2022-10-25T23:39:20.111Z,99328.42
2022-10-25T23:44:24.432Z,99328.50
2022-10-25T23:49:27.343Z,99327.06
2022-10-25T23:54:30.716Z,99334.19
2022-10-25T23:59:33.641Z,99341.93
